Siletz, OR

11:28 AM PDT on October 30, 2014 (GMT -0700)
Corvallis Municipal | Change Station
CLOSE
Current Station
Airport
Location: Corvallis,
Elevation: 246 ft
Nearby Weather Stations

Elev 246 ft 44.50 °N, 123.29 °W | Updated 33 minutes ago

Overcast
Overcast
57 °F
Feels Like 57 °F
N
0
Wind Variable Wind from North

Today
High -- | Low -- °F
--% Chance of Precip.
Yesterday
High -- | Low -- °F
Precip. -- in
7:50 AM 6:06 PM
Waxing Crescent, 46% visible
Pressure 29.86 in
Visibility 1.8 miles
Clouds Overcast 200 ft
Dew Point 55 °F
Humidity 94%
Rainfall 0.01 in
Snow Depth Not available.
UV 1 out of 12
Pollen .30 out of 12
Air Quality Not available.
Flu Activity Not available.
METAR KCVO 301755Z AUTO 00000KT 1 3/4SM OVC002 14/13 A2986 RMK AO1 60001 10140 20130 57010

More Conditions Fewer Conditions

Pressure 29.86 in
Visibility 1.8 miles
Clouds Overcast 200 ft
Dew Point 55 °F
Humidity 94%
Rainfall 0.01 in
Snow Depth Not available.
UV 1 out of 12
Pollen .30 out of 12
Air Quality Not available.
Flu Activity Not available.
METAR KCVO 301755Z AUTO 00000KT 1 3/4SM OVC002 14/13 A2986 RMK AO1 60001 10140 20130 57010

More Conditions Fewer Conditions

10-Day Weather Forecast

Almanac

Astronomy

Oct. 30, 2014 Rise Set
Actual Time
Civil Twilight
Nautical Twilight
Astronomical Twilight
Moon
Length of Visible Light
Length of Day
Tomorrow will be .
, % of the Moon is Illuminated

Today's Extremes

State Highs State Lows

Community

WunderPhotos

Upload Photos

1,766,419 photos uploaded!

WunderBlogs® & News

Nearby

Air Quality

  Air Quality AQ Index Pollutant
Not available.

Snow Depth

Station Depth Elevation

Earthquake Activity

City Distance Mag. Time & Date
Minimum magnitude displayed is 2.5.

Coastal Water Temperatures

Place Temperature

Nearby Weather Stations